createdAt,value
2023-04-18T00:02:29.001Z,101654.06
2023-04-18T00:05:30.678Z,101654.16
2023-04-18T00:08:33.504Z,101655.03
2023-04-18T00:11:35.096Z,101652.59
2023-04-18T00:14:37.980Z,101656.16
2023-04-18T00:17:39.727Z,101658.16
2023-04-18T00:20:41.495Z,101659.03
2023-04-18T00:23:43.174Z,101662.84
2023-04-18T00:26:44.700Z,101659.28
2023-04-18T00:29:46.959Z,101665.84
2023-04-18T00:32:51.050Z,101664.09
2023-04-18T00:35:53.817Z,101660.53
2023-04-18T00:38:55.303Z,101666.97
2023-04-18T00:41:56.845Z,101670.81
2023-04-18T00:44:58.372Z,101669.94
2023-04-18T00:48:00.312Z,101671.78
2023-04-18T00:51:01.935Z,101679.06
2023-04-18T00:54:06.427Z,101674.66
2023-04-18T00:57:08.220Z,101675.63
2023-04-18T01:00:10.378Z,101673.06
2023-04-18T01:03:14.477Z,101672.19
2023-04-18T01:06:16.620Z,101672.31
2023-04-18T01:09:18.526Z,101672.44
2023-04-18T01:12:20.126Z,101671.59
2023-04-18T01:15:21.653Z,101668.88
2023-04-18T01:18:24.266Z,101668.13
2023-04-18T01:21:26.789Z,101669.16
2023-04-18T01:24:29.729Z,101667.41
2023-04-18T01:27:31.206Z,101654.84
2023-04-18T01:30:35.266Z,101653.97
2023-04-18T01:33:37.246Z,101659.53
2023-04-18T01:36:39.006Z,101669.53
2023-04-18T01:39:40.689Z,101666.81
2023-04-18T01:42:42.268Z,101664.09
2023-04-18T01:45:45.679Z,101658.09
2023-04-18T01:48:47.123Z,101658.94
2023-04-18T01:51:48.865Z,101655.38
2023-04-18T01:54:50.715Z,101656.34
2023-04-18T01:57:53.789Z,101651.94
2023-04-18T02:00:57.682Z,101648.34
2023-04-18T02:03:59.336Z,101647.63
2023-04-18T02:07:01.004Z,101653.06
2023-04-18T02:10:02.967Z,101651.31
2023-04-18T02:13:04.817Z,101658.59
2023-04-18T02:16:11.125Z,101653.16
2023-04-18T02:19:12.647Z,101650.72
2023-04-18T02:22:17.533Z,101657.00
2023-04-18T02:25:19.021Z,101659.88
2023-04-18T02:28:22.251Z,101650.84
2023-04-18T02:31:23.824Z,101652.69
2023-04-18T02:34:25.666Z,101654.56
2023-04-18T02:37:27.233Z,101657.28
2023-04-18T02:40:28.748Z,101660.09
2023-04-18T02:43:30.483Z,101656.53
2023-04-18T02:46:32.890Z,101654.81
2023-04-18T02:49:35.291Z,101660.25
2023-04-18T02:52:36.828Z,101658.50
2023-04-18T02:55:38.384Z,101655.78
2023-04-18T02:58:40.206Z,101662.22
2023-04-18T03:02:00.262Z,101664.81
2023-04-18T03:05:01.899Z,101663.81
2023-04-18T03:08:03.557Z,101661.22
2023-04-18T03:11:05.500Z,101663.81
2023-04-18T03:14:07.077Z,101669.13
2023-04-18T03:17:19.515Z,101666.16
2023-04-18T03:20:23.940Z,101674.13
2023-04-18T03:23:26.854Z,101674.88
2023-04-18T03:26:28.766Z,101670.19
2023-04-18T03:29:31.736Z,101670.06
2023-04-18T03:32:35.114Z,101671.66
2023-04-18T03:35:37.206Z,101677.69
2023-04-18T03:38:40.452Z,101675.69
2023-04-18T03:41:42.421Z,101674.56
2023-04-18T03:44:44.542Z,101670.84
2023-04-18T03:47:46.724Z,101671.59
2023-04-18T03:50:49.799Z,101676.91
2023-04-18T03:53:51.421Z,101686.63
2023-04-18T03:56:53.097Z,101682.91
2023-04-18T03:59:55.283Z,101681.06
2023-04-18T04:02:56.943Z,101682.81
2023-04-18T04:05:58.851Z,101674.50
2023-04-18T04:09:00.885Z,101673.66
2023-04-18T04:12:03.890Z,101680.78
2023-04-18T04:15:06.031Z,101687.22
2023-04-18T04:18:08.987Z,101683.66
2023-04-18T04:21:13.824Z,101689.09
2023-04-18T04:24:24.804Z,101687.34
2023-04-18T04:27:26.875Z,101686.50
2023-04-18T04:30:28.649Z,101689.19
2023-04-18T04:33:33.187Z,101701.91
2023-04-18T04:36:37.915Z,101699.31
2023-04-18T04:39:41.302Z,101689.47
2023-04-18T04:42:59.627Z,101702.03
2023-04-18T04:46:07.759Z,101694.03
2023-04-18T04:49:09.285Z,101697.72
2023-04-18T04:52:11.330Z,101696.88
2023-04-18T04:55:13.080Z,101700.59
2023-04-18T04:58:16.424Z,101700.72
2023-04-18T05:01:34.855Z,101707.00
2023-04-18T05:04:36.565Z,101698.00
2023-04-18T05:07:38.150Z,101704.28
2023-04-18T05:10:39.711Z,101705.16
2023-04-18T05:13:41.165Z,101712.31
2023-04-18T05:16:42.752Z,101714.03
2023-04-18T05:19:44.390Z,101709.47
2023-04-18T05:22:45.877Z,101714.75
2023-04-18T05:25:47.403Z,101722.78
2023-04-18T05:28:49.120Z,101724.50
2023-04-18T05:31:50.670Z,101724.66
2023-04-18T05:34:52.236Z,101728.22
2023-04-18T05:37:53.742Z,101724.66
2023-04-18T05:40:55.725Z,101736.22
2023-04-18T05:44:04.974Z,101738.06
2023-04-18T05:47:18.628Z,101734.50
2023-04-18T05:50:20.567Z,101737.22
2023-04-18T05:53:22.062Z,101739.94
2023-04-18T05:56:23.584Z,101736.34
2023-04-18T05:59:26.672Z,101741.78
2023-04-18T06:02:28.332Z,101741.91
2023-04-18T06:05:30.287Z,101741.91
2023-04-18T06:08:32.054Z,101746.47
2023-04-18T06:11:35.472Z,101745.63
2023-04-18T06:14:36.997Z,101747.47
2023-04-18T06:17:38.585Z,101743.03
2023-04-18T06:20:40.165Z,101747.59
2023-04-18T06:23:41.617Z,101752.19
2023-04-18T06:26:43.152Z,101762.19
2023-04-18T06:29:44.669Z,101756.88
2023-04-18T06:32:46.176Z,101763.31
2023-04-18T06:35:47.671Z,101759.69
2023-04-18T06:38:49.228Z,101769.69
2023-04-18T06:41:50.805Z,101766.13
2023-04-18T06:45:03.641Z,101770.69
2023-04-18T06:48:05.864Z,101771.66
2023-04-18T06:51:07.454Z,101772.69
2023-04-18T06:54:08.957Z,101779.09
2023-04-18T06:57:10.754Z,101779.97
2023-04-18T07:00:12.888Z,101789.06
2023-04-18T07:03:14.642Z,101792.78
2023-04-18T07:06:16.309Z,101792.06
2023-04-18T07:09:17.803Z,101793.78
2023-04-18T07:12:19.437Z,101798.34
2023-04-18T07:15:21.081Z,101793.91
2023-04-18T07:18:34.282Z,101797.63
2023-04-18T07:21:40.495Z,101800.34
2023-04-18T07:24:42.161Z,101801.31
2023-04-18T07:27:43.631Z,101806.75
2023-04-18T07:30:45.130Z,101802.31
2023-04-18T07:33:46.650Z,101798.75
2023-04-18T07:36:48.371Z,101800.47
2023-04-18T07:39:51.467Z,101799.59
2023-04-18T07:42:53.261Z,101800.56
2023-04-18T07:45:54.886Z,101801.69
2023-04-18T07:48:56.363Z,101804.41
2023-04-18T07:51:57.855Z,101800.84
2023-04-18T07:54:59.305Z,101806.25
2023-04-18T07:58:00.950Z,101804.56
2023-04-18T08:01:02.714Z,101807.25
2023-04-18T08:04:04.539Z,101809.13
2023-04-18T08:07:06.164Z,101808.13
2023-04-18T08:10:08.198Z,101812.69
2023-04-18T08:13:09.749Z,101813.66
2023-04-18T08:16:11.355Z,101810.09
2023-04-18T08:19:13.205Z,101811.09
2023-04-18T08:22:14.825Z,101812.81
2023-04-18T08:25:16.489Z,101822.69
2023-04-18T08:28:18.048Z,101819.25
2023-04-18T08:31:19.635Z,101825.53
2023-04-18T08:34:21.362Z,101819.25
2023-04-18T08:37:22.897Z,101820.09
2023-04-18T08:40:24.477Z,101817.50
2023-04-18T08:43:25.998Z,101822.91
2023-04-18T08:46:29.860Z,101822.06
2023-04-18T08:49:31.541Z,101833.78
2023-04-18T08:52:35.979Z,101830.19
2023-04-18T08:55:37.882Z,101828.50
2023-04-18T08:58:40.339Z,101831.22
2023-04-18T09:02:01.405Z,101830.19
2023-04-18T09:05:20.981Z,101841.06
2023-04-18T09:08:24.288Z,101839.34
2023-04-18T09:11:28.607Z,101836.75
2023-04-18T09:14:30.370Z,101838.59
2023-04-18T09:17:34.728Z,101842.16
2023-04-18T09:20:39.159Z,101840.31
2023-04-18T09:23:40.634Z,101836.88
2023-04-18T09:26:42.131Z,101840.47
2023-04-18T09:29:50.013Z,101835.03
2023-04-18T09:32:57.788Z,101841.31
2023-04-18T09:36:20.718Z,101835.03
2023-04-18T09:39:27.952Z,101838.59
2023-04-18T09:42:36.266Z,101836.88
2023-04-18T09:45:38.666Z,101838.72
2023-04-18T09:48:41.626Z,101835.03
2023-04-18T09:51:46.632Z,101832.31
2023-04-18T09:54:50.490Z,101831.56
2023-04-18T09:57:53.866Z,101827.00
2023-04-18T10:00:56.934Z,101828.84
2023-04-18T10:04:02.011Z,101832.44
2023-04-18T10:07:03.696Z,101832.53
2023-04-18T10:10:05.747Z,101829.84
2023-04-18T10:13:10.977Z,101831.56
2023-04-18T10:16:12.748Z,101831.66
2023-04-18T10:19:29.389Z,101830.72
2023-04-18T10:22:31.798Z,101828.94
2023-04-18T10:25:39.378Z,101830.72
2023-04-18T10:29:01.563Z,101828.94
2023-04-18T10:32:06.709Z,101842.66
2023-04-18T10:35:08.649Z,101836.38
2023-04-18T10:38:16.986Z,101836.22
2023-04-18T10:41:22.612Z,101833.78
2023-04-18T10:44:24.321Z,101831.91
2023-04-18T10:47:25.956Z,101835.63
2023-04-18T10:50:27.582Z,101835.63
2023-04-18T10:53:29.061Z,101835.63
2023-04-18T10:56:30.772Z,101832.06
2023-04-18T10:59:34.109Z,101829.34
2023-04-18T11:02:36.036Z,101827.59
2023-04-18T11:05:37.691Z,101823.03
2023-04-18T11:08:39.724Z,101823.91
2023-04-18T11:11:42.398Z,101824.03
2023-04-18T11:14:46.121Z,101821.19
2023-04-18T11:17:59.328Z,101827.47
2023-04-18T11:21:03.654Z,101829.34
2023-04-18T11:24:05.400Z,101828.44
2023-04-18T11:27:09.765Z,101827.47
2023-04-18T11:30:13.059Z,101834.78
2023-04-18T11:33:15.442Z,101823.91
2023-04-18T11:36:17.072Z,101826.63
2023-04-18T11:39:19.124Z,101818.50
2023-04-18T11:42:21.107Z,101824.88
2023-04-18T11:45:22.704Z,101816.75
2023-04-18T11:48:33.567Z,101816.75
2023-04-18T11:51:36.753Z,101826.47
2023-04-18T11:54:45.322Z,101822.81
2023-04-18T11:57:55.221Z,101829.94
2023-04-18T12:00:56.762Z,101831.81
2023-04-18T12:04:05.871Z,101822.16
2023-04-18T12:07:07.562Z,101829.47
2023-04-18T12:10:23.506Z,101819.47
2023-04-18T12:13:27.195Z,101817.84
2023-04-18T12:16:30.680Z,101818.97
2023-04-18T12:19:32.915Z,101813.91
2023-04-18T12:22:49.462Z,101814.94
2023-04-18T12:25:58.831Z,101815.16
2023-04-18T12:29:00.702Z,101810.00
2023-04-18T12:32:02.377Z,101814.56
2023-04-18T12:35:04.356Z,101813.69
2023-04-18T12:38:05.936Z,101810.84
2023-04-18T12:41:07.511Z,101809.88
2023-04-18T12:44:09.280Z,101807.91
2023-04-18T12:47:10.792Z,101812.09
2023-04-18T12:50:19.006Z,101810.97
2023-04-18T12:53:20.619Z,101808.25
2023-04-18T12:56:22.094Z,101808.88
2023-04-18T12:59:23.731Z,101803.47
2023-04-18T13:02:26.391Z,101806.78
2023-04-18T13:05:32.510Z,101809.38
2023-04-18T13:08:35.263Z,101803.06
2023-04-18T13:11:36.754Z,101804.81
2023-04-18T13:14:38.509Z,101810.09
2023-04-18T13:17:40.322Z,101808.13
2023-04-18T13:20:41.891Z,101810.84
2023-04-18T13:23:43.384Z,101811.56
2023-04-18T13:26:44.903Z,101818.72
2023-04-18T13:29:46.676Z,101809.72
2023-04-18T13:32:48.211Z,101807.88
2023-04-18T13:35:49.767Z,101811.47
2023-04-18T13:38:51.594Z,101801.47
2023-04-18T13:41:54.582Z,101800.47
2023-04-18T13:44:56.131Z,101798.63
2023-04-18T13:47:57.613Z,101798.63
2023-04-18T13:50:59.151Z,101800.34
2023-04-18T13:54:00.982Z,101796.63
2023-04-18T13:57:03.295Z,101799.34
2023-04-18T14:00:06.558Z,101795.66
2023-04-18T14:03:13.638Z,101796.31
2023-04-18T14:06:15.644Z,101800.59
2023-04-18T14:09:17.873Z,101800.34
2023-04-18T14:12:19.364Z,101794.06
2023-04-18T14:15:21.431Z,101789.66
2023-04-18T14:18:24.521Z,101779.75
2023-04-18T14:21:26.504Z,101788.63
2023-04-18T14:24:28.186Z,101776.94
2023-04-18T14:27:30.085Z,101776.06
2023-04-18T14:30:31.755Z,101772.38
2023-04-18T14:33:34.096Z,101772.09
2023-04-18T14:36:35.848Z,101772.72
2023-04-18T14:39:38.011Z,101772.56
2023-04-18T14:42:39.550Z,101773.31
2023-04-18T14:45:41.000Z,101765.78
2023-04-18T14:48:45.001Z,101766.41
2023-04-18T14:51:46.558Z,101770.69
2023-04-18T14:54:48.129Z,101763.41
2023-04-18T14:57:49.682Z,101761.44
2023-04-18T15:00:51.143Z,101757.72
2023-04-18T15:03:53.047Z,101752.19
2023-04-18T15:06:54.818Z,101751.16
2023-04-18T15:09:56.410Z,101754.75
2023-04-18T15:12:57.882Z,101747.47
2023-04-18T15:15:59.361Z,101749.19
2023-04-18T15:19:00.829Z,101745.47
2023-04-18T15:22:02.912Z,101742.91
2023-04-18T15:25:05.581Z,101734.88
2023-04-18T15:28:07.051Z,101736.00
2023-04-18T15:31:09.514Z,101736.75
2023-04-18T15:34:11.806Z,101737.47
2023-04-18T15:37:13.285Z,101737.59
2023-04-18T15:40:16.385Z,101737.47
2023-04-18T15:43:18.089Z,101743.66
2023-04-18T15:46:19.588Z,101736.34
2023-04-18T15:49:21.290Z,101739.94
2023-04-18T15:52:22.838Z,101737.34
2023-04-18T15:55:24.338Z,101734.75
2023-04-18T15:58:29.886Z,101745.63
2023-04-18T16:01:32.120Z,101733.16
2023-04-18T16:04:33.793Z,101740.47
2023-04-18T16:07:35.337Z,101738.88
2023-04-18T16:10:37.406Z,101735.16
2023-04-18T16:13:38.962Z,101741.59
2023-04-18T16:16:40.447Z,101729.84
2023-04-18T16:19:41.935Z,101730.72
2023-04-18T16:22:43.443Z,101740.69
2023-04-18T16:25:44.920Z,101732.56
2023-04-18T16:28:48.083Z,101728.88
2023-04-18T16:31:51.556Z,101728.88
2023-04-18T16:34:53.279Z,101729.59
2023-04-18T16:37:54.775Z,101728.72
2023-04-18T16:41:01.483Z,101731.44
2023-04-18T16:44:03.079Z,101735.88
2023-04-18T16:47:05.932Z,101730.47
2023-04-18T16:50:08.026Z,101733.16
2023-04-18T16:53:09.574Z,101734.16
2023-04-18T16:56:11.157Z,101735.88
2023-04-18T16:59:12.683Z,101739.56
2023-04-18T17:02:14.263Z,101729.59
2023-04-18T17:05:15.847Z,101736.84
2023-04-18T17:08:17.591Z,101745.88
2023-04-18T17:11:20.720Z,101740.47
2023-04-18T17:14:22.194Z,101739.56
2023-04-18T17:17:23.893Z,101744.03
2023-04-18T17:20:25.617Z,101743.19
2023-04-18T17:23:27.220Z,101754.03
2023-04-18T17:26:31.550Z,101754.03
2023-04-18T17:29:33.009Z,101752.28
2023-04-18T17:32:35.266Z,101747.72
2023-04-18T17:35:36.893Z,101758.56
2023-04-18T17:38:38.633Z,101754.03
2023-04-18T17:41:40.216Z,101752.28
2023-04-18T17:44:41.757Z,101756.75
2023-04-18T17:47:43.270Z,101759.59
2023-04-18T17:50:44.763Z,101757.72
2023-04-18T17:53:46.515Z,101762.19
2023-04-18T17:56:48.218Z,101752.28
2023-04-18T17:59:49.677Z,101760.44
2023-04-18T18:02:51.359Z,101763.16
2023-04-18T18:05:54.901Z,101763.16
2023-04-18T18:08:56.623Z,101765.00
2023-04-18T18:11:58.612Z,101765.88
2023-04-18T18:15:00.315Z,101768.59
2023-04-18T18:18:01.914Z,101765.88
2023-04-18T18:21:03.855Z,101767.59
2023-04-18T18:24:06.108Z,101774.88
2023-04-18T18:27:07.646Z,101767.72
2023-04-18T18:30:09.354Z,101765.88
2023-04-18T18:33:10.830Z,101768.59
2023-04-18T18:36:12.324Z,101771.28
2023-04-18T18:39:16.340Z,101775.75
2023-04-18T18:42:18.053Z,101777.56
2023-04-18T18:45:21.057Z,101781.28
2023-04-18T18:48:23.843Z,101784.75
2023-04-18T18:51:26.197Z,101790.19
2023-04-18T18:54:28.071Z,101790.19
2023-04-18T18:57:29.527Z,101785.59
2023-04-18T19:00:31.008Z,101789.19
2023-04-18T19:03:34.118Z,101777.47
2023-04-18T19:06:35.628Z,101790.91
2023-04-18T19:09:37.089Z,101789.06
2023-04-18T19:12:38.544Z,101793.50
2023-04-18T19:15:43.000Z,101795.22
2023-04-18T19:18:49.073Z,101790.66
2023-04-18T19:21:50.568Z,101797.78
2023-04-18T19:24:52.137Z,101796.81
2023-04-18T19:27:53.571Z,101794.97
2023-04-18T19:30:55.165Z,101794.81
2023-04-18T19:33:56.613Z,101793.09
2023-04-18T19:36:58.129Z,101792.25
2023-04-18T19:39:59.562Z,101794.13
2023-04-18T19:43:01.050Z,101798.53
2023-04-18T19:46:02.498Z,101803.13
2023-04-18T19:49:04.049Z,101803.13
2023-04-18T19:52:06.107Z,101805.81
2023-04-18T19:55:07.941Z,101806.69
2023-04-18T19:58:09.381Z,101804.97
2023-04-18T20:01:12.061Z,101800.41
2023-04-18T20:04:13.663Z,101801.25
2023-04-18T20:07:15.211Z,101802.09
2023-04-18T20:10:21.250Z,101803.13
2023-04-18T20:13:22.730Z,101803.97
2023-04-18T20:16:24.196Z,101821.13
2023-04-18T20:19:26.675Z,101813.97
2023-04-18T20:22:28.218Z,101821.25
2023-04-18T20:25:29.776Z,101810.41
2023-04-18T20:28:31.628Z,101816.69
2023-04-18T20:31:33.084Z,101810.50
2023-04-18T20:34:34.565Z,101821.38
2023-04-18T20:37:36.642Z,101822.22
2023-04-18T20:40:39.633Z,101818.66
2023-04-18T20:43:43.365Z,101814.25
2023-04-18T20:46:44.830Z,101821.38
2023-04-18T20:49:46.321Z,101822.38
2023-04-18T20:52:47.811Z,101825.09
2023-04-18T20:55:49.321Z,101823.34
2023-04-18T20:58:50.908Z,101818.94
2023-04-18T21:01:52.502Z,101825.22
2023-04-18T21:04:54.641Z,101835.22
2023-04-18T21:07:56.191Z,101835.22
2023-04-18T21:10:57.647Z,101834.34
2023-04-18T21:13:59.225Z,101840.75
2023-04-18T21:17:00.754Z,101836.34
2023-04-18T21:20:02.340Z,101841.75
2023-04-18T21:23:03.887Z,101839.16
2023-04-18T21:26:05.369Z,101841.03
2023-04-18T21:29:06.922Z,101839.16
2023-04-18T21:32:08.470Z,101836.59
2023-04-18T21:35:10.157Z,101836.59
2023-04-18T21:38:11.682Z,101836.72
2023-04-18T21:41:16.843Z,101832.03
2023-04-18T21:44:18.876Z,101834.00
2023-04-18T21:47:20.534Z,101837.56
2023-04-18T21:50:22.106Z,101830.41
2023-04-18T21:53:23.655Z,101836.81
2023-04-18T21:56:25.199Z,101838.69
2023-04-18T21:59:26.743Z,101832.41
2023-04-18T22:02:28.303Z,101829.69
2023-04-18T22:05:30.350Z,101828.81
2023-04-18T22:08:34.509Z,101826.22
2023-04-18T22:11:36.505Z,101824.38
2023-04-18T22:14:38.040Z,101817.22
2023-04-18T22:17:41.610Z,101823.50
2023-04-18T22:20:43.729Z,101834.38
2023-04-18T22:23:45.562Z,101832.66
2023-04-18T22:26:47.024Z,101836.22
2023-04-18T22:29:48.490Z,101830.78
2023-04-18T22:32:50.112Z,101826.38
2023-04-18T22:35:52.902Z,101832.66
2023-04-18T22:38:54.371Z,101834.38
2023-04-18T22:41:55.792Z,101827.97
2023-04-18T22:44:57.506Z,101836.97
2023-04-18T22:47:58.983Z,101830.53
2023-04-18T22:51:01.775Z,101846.56
2023-04-18T22:54:03.323Z,101841.13
2023-04-18T22:57:04.761Z,101844.59
2023-04-18T23:00:07.048Z,101841.88
2023-04-18T23:03:08.668Z,101841.03
2023-04-18T23:06:10.233Z,101843.47
2023-04-18T23:09:11.723Z,101847.03
2023-04-18T23:12:13.212Z,101841.50
2023-04-18T23:15:14.705Z,101851.34
2023-04-18T23:18:16.193Z,101844.09
2023-04-18T23:21:17.922Z,101837.66
2023-04-18T23:24:19.398Z,101838.41
2023-04-18T23:27:20.932Z,101845.56
2023-04-18T23:30:22.481Z,101840.97
2023-04-18T23:33:23.976Z,101842.72
2023-04-18T23:36:26.187Z,101835.44
2023-04-18T23:39:27.774Z,101833.56
2023-04-18T23:42:29.297Z,101831.72
2023-04-18T23:45:31.044Z,101827.28
2023-04-18T23:48:32.512Z,101831.72
2023-04-18T23:51:33.964Z,101824.44
2023-04-18T23:54:35.861Z,101826.16
2023-04-18T23:57:37.356Z,101822.44
